sensor_id;sensor_type;location;lat;lon;timestamp;temperature;humidity
23633;DHT22;11993;48.748;9.166;2023-04-25T00:02:04;8.70;71.30
23633;DHT22;11993;48.748;9.166;2023-04-25T00:04:30;8.70;70.60
23633;DHT22;11993;48.748;9.166;2023-04-25T00:06:59;8.70;71.10
23633;DHT22;11993;48.748;9.166;2023-04-25T00:09:27;8.70;70.60
23633;DHT22;11993;48.748;9.166;2023-04-25T00:11:53;8.70;70.50
23633;DHT22;11993;48.748;9.166;2023-04-25T00:14:18;8.60;71.10
23633;DHT22;11993;48.748;9.166;2023-04-25T00:16:44;8.60;71.30
23633;DHT22;11993;48.748;9.166;2023-04-25T00:19:10;8.60;71.20
23633;DHT22;11993;48.748;9.166;2023-04-25T00:21:36;8.60;71.50
23633;DHT22;11993;48.748;9.166;2023-04-25T00:24:06;8.50;71.90
23633;DHT22;11993;48.748;9.166;2023-04-25T00:26:33;8.60;71.20
23633;DHT22;11993;48.748;9.166;2023-04-25T00:28:58;8.50;71.60
23633;DHT22;11993;48.748;9.166;2023-04-25T00:31:24;8.60;71.50
23633;DHT22;11993;48.748;9.166;2023-04-25T00:33:49;8.60;71.70
23633;DHT22;11993;48.748;9.166;2023-04-25T00:36:15;8.60;71.60
23633;DHT22;11993;48.748;9.166;2023-04-25T00:38:41;8.60;71.40
23633;DHT22;11993;48.748;9.166;2023-04-25T00:41:07;8.60;71.60
23633;DHT22;11993;48.748;9.166;2023-04-25T00:43:33;8.70;71.40
23633;DHT22;11993;48.748;9.166;2023-04-25T00:46:00;8.60;71.70
23633;DHT22;11993;48.748;9.166;2023-04-25T00:48:26;8.60;71.70
23633;DHT22;11993;48.748;9.166;2023-04-25T00:50:54;8.50;72.20
23633;DHT22;11993;48.748;9.166;2023-04-25T00:53:21;8.30;72.90
23633;DHT22;11993;48.748;9.166;2023-04-25T00:55:47;8.30;72.80
23633;DHT22;11993;48.748;9.166;2023-04-25T00:58:13;8.40;73.00
23633;DHT22;11993;48.748;9.166;2023-04-25T01:00:40;8.40;72.70
23633;DHT22;11993;48.748;9.166;2023-04-25T01:03:06;8.30;73.60
23633;DHT22;11993;48.748;9.166;2023-04-25T01:05:32;8.30;73.70
23633;DHT22;11993;48.748;9.166;2023-04-25T01:07:58;8.30;73.70
23633;DHT22;11993;48.748;9.166;2023-04-25T01:10:24;8.30;74.00
23633;DHT22;11993;48.748;9.166;2023-04-25T01:12:50;8.40;74.10
23633;DHT22;11993;48.748;9.166;2023-04-25T01:15:15;8.50;74.00
23633;DHT22;11993;48.748;9.166;2023-04-25T01:17:41;8.40;74.00
23633;DHT22;11993;48.748;9.166;2023-04-25T01:20:08;8.50;74.10
23633;DHT22;11993;48.748;9.166;2023-04-25T01:22:34;8.60;74.00
23633;DHT22;11993;48.748;9.166;2023-04-25T01:25:00;8.50;73.80
23633;DHT22;11993;48.748;9.166;2023-04-25T01:27:26;8.50;73.90
23633;DHT22;11993;48.748;9.166;2023-04-25T01:29:54;8.50;74.30
23633;DHT22;11993;48.748;9.166;2023-04-25T01:32:21;8.60;74.40
23633;DHT22;11993;48.748;9.166;2023-04-25T01:34:47;8.50;74.30
23633;DHT22;11993;48.748;9.166;2023-04-25T01:37:13;8.40;74.80
23633;DHT22;11993;48.748;9.166;2023-04-25T01:39:38;8.50;74.70
23633;DHT22;11993;48.748;9.166;2023-04-25T01:42:04;8.40;75.10
23633;DHT22;11993;48.748;9.166;2023-04-25T01:44:30;8.60;74.90
23633;DHT22;11993;48.748;9.166;2023-04-25T01:46:55;8.20;75.70
23633;DHT22;11993;48.748;9.166;2023-04-25T01:49:21;8.30;75.70
23633;DHT22;11993;48.748;9.166;2023-04-25T01:51:47;8.20;75.80
23633;DHT22;11993;48.748;9.166;2023-04-25T01:54:13;7.80;77.20
23633;DHT22;11993;48.748;9.166;2023-04-25T01:56:39;7.90;77.30
23633;DHT22;11993;48.748;9.166;2023-04-25T01:59:05;7.90;77.80
23633;DHT22;11993;48.748;9.166;2023-04-25T02:01:31;7.70;78.20
23633;DHT22;11993;48.748;9.166;2023-04-25T02:03:57;7.70;78.70
23633;DHT22;11993;48.748;9.166;2023-04-25T02:06:23;7.90;78.40
23633;DHT22;11993;48.748;9.166;2023-04-25T02:08:48;8.00;77.20
23633;DHT22;11993;48.748;9.166;2023-04-25T02:11:14;7.90;77.60
23633;DHT22;11993;48.748;9.166;2023-04-25T02:13:39;7.80;77.60
23633;DHT22;11993;48.748;9.166;2023-04-25T02:16:05;7.80;77.50
23633;DHT22;11993;48.748;9.166;2023-04-25T02:18:31;7.60;78.00
23633;DHT22;11993;48.748;9.166;2023-04-25T02:20:57;7.60;77.40
23633;DHT22;11993;48.748;9.166;2023-04-25T02:23:23;7.60;77.60
23633;DHT22;11993;48.748;9.166;2023-04-25T02:25:48;7.60;76.40
23633;DHT22;11993;48.748;9.166;2023-04-25T02:28:14;7.60;76.00
23633;DHT22;11993;48.748;9.166;2023-04-25T02:30:40;7.60;76.50
23633;DHT22;11993;48.748;9.166;2023-04-25T02:33:05;7.60;76.10
23633;DHT22;11993;48.748;9.166;2023-04-25T02:35:31;7.80;75.40
23633;DHT22;11993;48.748;9.166;2023-04-25T02:37:57;7.70;75.10
23633;DHT22;11993;48.748;9.166;2023-04-25T02:40:22;7.70;75.00
23633;DHT22;11993;48.748;9.166;2023-04-25T02:42:48;7.90;75.30
23633;DHT22;11993;48.748;9.166;2023-04-25T02:45:13;7.90;74.70
23633;DHT22;11993;48.748;9.166;2023-04-25T02:47:39;7.90;74.90
23633;DHT22;11993;48.748;9.166;2023-04-25T02:50:06;7.90;74.90
23633;DHT22;11993;48.748;9.166;2023-04-25T02:52:31;8.10;74.00
23633;DHT22;11993;48.748;9.166;2023-04-25T02:54:57;7.90;73.80
23633;DHT22;11993;48.748;9.166;2023-04-25T02:57:22;7.90;73.70
23633;DHT22;11993;48.748;9.166;2023-04-25T02:59:48;7.90;73.90
23633;DHT22;11993;48.748;9.166;2023-04-25T03:02:13;7.90;74.30
23633;DHT22;11993;48.748;9.166;2023-04-25T03:04:39;7.70;74.40
23633;DHT22;11993;48.748;9.166;2023-04-25T03:07:05;7.90;74.10
23633;DHT22;11993;48.748;9.166;2023-04-25T03:09:31;7.70;74.50
23633;DHT22;11993;48.748;9.166;2023-04-25T03:11:56;7.70;74.60
23633;DHT22;11993;48.748;9.166;2023-04-25T03:14:22;7.70;74.80
23633;DHT22;11993;48.748;9.166;2023-04-25T03:16:47;7.90;74.20
23633;DHT22;11993;48.748;9.166;2023-04-25T03:19:13;7.80;74.00
23633;DHT22;11993;48.748;9.166;2023-04-25T03:21:41;7.90;74.40
23633;DHT22;11993;48.748;9.166;2023-04-25T03:24:07;8.00;74.30
23633;DHT22;11993;48.748;9.166;2023-04-25T03:26:32;7.90;74.20
23633;DHT22;11993;48.748;9.166;2023-04-25T03:28:58;7.90;73.90
23633;DHT22;11993;48.748;9.166;2023-04-25T03:31:23;7.90;74.20
23633;DHT22;11993;48.748;9.166;2023-04-25T03:33:49;7.90;74.20
23633;DHT22;11993;48.748;9.166;2023-04-25T03:36:14;7.70;74.50
23633;DHT22;11993;48.748;9.166;2023-04-25T03:38:40;7.70;74.60
23633;DHT22;11993;48.748;9.166;2023-04-25T03:41:07;7.80;74.60
23633;DHT22;11993;48.748;9.166;2023-04-25T03:43:33;7.70;74.70
23633;DHT22;11993;48.748;9.166;2023-04-25T03:45:58;7.70;74.80
23633;DHT22;11993;48.748;9.166;2023-04-25T03:48:25;7.80;74.70
23633;DHT22;11993;48.748;9.166;2023-04-25T03:50:52;7.70;75.40
23633;DHT22;11993;48.748;9.166;2023-04-25T03:53:17;7.70;75.40
23633;DHT22;11993;48.748;9.166;2023-04-25T03:55:43;7.70;75.10
23633;DHT22;11993;48.748;9.166;2023-04-25T03:58:08;7.70;75.50
23633;DHT22;11993;48.748;9.166;2023-04-25T04:00:35;7.70;75.40
23633;DHT22;11993;48.748;9.166;2023-04-25T04:03:00;7.60;76.00
23633;DHT22;11993;48.748;9.166;2023-04-25T04:05:26;7.70;75.90
23633;DHT22;11993;48.748;9.166;2023-04-25T04:07:52;7.70;76.10
23633;DHT22;11993;48.748;9.166;2023-04-25T04:10:18;7.60;76.30
23633;DHT22;11993;48.748;9.166;2023-04-25T04:12:44;7.60;76.00
23633;DHT22;11993;48.748;9.166;2023-04-25T04:15:10;7.60;76.20
23633;DHT22;11993;48.748;9.166;2023-04-25T04:17:35;7.50;76.60
23633;DHT22;11993;48.748;9.166;2023-04-25T04:20:01;7.40;77.60
23633;DHT22;11993;48.748;9.166;2023-04-25T04:22:28;7.50;76.80
23633;DHT22;11993;48.748;9.166;2023-04-25T04:24:54;7.50;76.70
23633;DHT22;11993;48.748;9.166;2023-04-25T04:27:20;7.50;76.80
23633;DHT22;11993;48.748;9.166;2023-04-25T04:29:46;7.60;76.80
23633;DHT22;11993;48.748;9.166;2023-04-25T04:32:13;7.60;76.70
23633;DHT22;11993;48.748;9.166;2023-04-25T04:34:40;7.60;77.00
23633;DHT22;11993;48.748;9.166;2023-04-25T04:37:06;7.50;77.00
23633;DHT22;11993;48.748;9.166;2023-04-25T04:39:33;7.60;76.80
23633;DHT22;11993;48.748;9.166;2023-04-25T04:41:59;7.60;76.70
23633;DHT22;11993;48.748;9.166;2023-04-25T04:44:26;7.60;76.60
23633;DHT22;11993;48.748;9.166;2023-04-25T04:46:52;7.60;76.80
23633;DHT22;11993;48.748;9.166;2023-04-25T04:49:18;7.70;76.60
23633;DHT22;11993;48.748;9.166;2023-04-25T04:51:43;7.80;76.20
23633;DHT22;11993;48.748;9.166;2023-04-25T04:54:12;7.80;75.90
23633;DHT22;11993;48.748;9.166;2023-04-25T04:56:38;7.80;76.30
23633;DHT22;11993;48.748;9.166;2023-04-25T04:59:03;7.70;76.40
23633;DHT22;11993;48.748;9.166;2023-04-25T05:01:29;7.60;76.90
23633;DHT22;11993;48.748;9.166;2023-04-25T05:03:57;7.70;76.80
23633;DHT22;11993;48.748;9.166;2023-04-25T05:06:27;7.60;76.80
23633;DHT22;11993;48.748;9.166;2023-04-25T05:08:54;7.60;76.80
23633;DHT22;11993;48.748;9.166;2023-04-25T05:11:20;7.70;76.80
23633;DHT22;11993;48.748;9.166;2023-04-25T05:13:46;7.90;76.10
23633;DHT22;11993;48.748;9.166;2023-04-25T05:16:12;7.90;76.40
23633;DHT22;11993;48.748;9.166;2023-04-25T05:18:39;8.00;76.00
23633;DHT22;11993;48.748;9.166;2023-04-25T05:21:05;7.90;76.50
23633;DHT22;11993;48.748;9.166;2023-04-25T05:23:31;8.00;76.40
23633;DHT22;11993;48.748;9.166;2023-04-25T05:25:57;8.10;76.10
23633;DHT22;11993;48.748;9.166;2023-04-25T05:28:23;8.20;76.00
23633;DHT22;11993;48.748;9.166;2023-04-25T05:30:49;8.30;75.20
23633;DHT22;11993;48.748;9.166;2023-04-25T05:33:15;8.30;75.50
23633;DHT22;11993;48.748;9.166;2023-04-25T05:35:41;8.20;75.30
23633;DHT22;11993;48.748;9.166;2023-04-25T05:38:07;8.50;75.20
23633;DHT22;11993;48.748;9.166;2023-04-25T05:40:32;8.60;74.90
23633;DHT22;11993;48.748;9.166;2023-04-25T05:42:58;8.60;75.00
23633;DHT22;11993;48.748;9.166;2023-04-25T05:45:23;8.70;75.60
23633;DHT22;11993;48.748;9.166;2023-04-25T05:47:49;8.80;75.00
23633;DHT22;11993;48.748;9.166;2023-04-25T05:50:15;8.90;74.20
23633;DHT22;11993;48.748;9.166;2023-04-25T05:52:40;8.90;74.20
23633;DHT22;11993;48.748;9.166;2023-04-25T05:55:06;8.90;74.00
23633;DHT22;11993;48.748;9.166;2023-04-25T05:57:32;8.80;74.30
23633;DHT22;11993;48.748;9.166;2023-04-25T05:59:57;9.00;73.00
23633;DHT22;11993;48.748;9.166;2023-04-25T06:02:23;8.90;73.30
23633;DHT22;11993;48.748;9.166;2023-04-25T06:04:52;8.80;73.30
23633;DHT22;11993;48.748;9.166;2023-04-25T06:07:21;8.70;73.90
23633;DHT22;11993;48.748;9.166;2023-04-25T06:09:47;8.70;73.90
23633;DHT22;11993;48.748;9.166;2023-04-25T06:12:12;8.90;73.50
23633;DHT22;11993;48.748;9.166;2023-04-25T06:14:38;8.60;73.70
23633;DHT22;11993;48.748;9.166;2023-04-25T06:17:03;8.60;73.90
23633;DHT22;11993;48.748;9.166;2023-04-25T06:19:34;8.60;73.20
23633;DHT22;11993;48.748;9.166;2023-04-25T06:22:01;8.60;72.60
23633;DHT22;11993;48.748;9.166;2023-04-25T06:24:26;8.50;73.60
23633;DHT22;11993;48.748;9.166;2023-04-25T06:26:52;8.50;74.00
23633;DHT22;11993;48.748;9.166;2023-04-25T06:29:18;8.60;75.20
23633;DHT22;11993;48.748;9.166;2023-04-25T06:31:43;8.60;73.80
23633;DHT22;11993;48.748;9.166;2023-04-25T06:34:09;8.60;73.90
23633;DHT22;11993;48.748;9.166;2023-04-25T06:36:34;8.50;74.30
23633;DHT22;11993;48.748;9.166;2023-04-25T06:39:00;8.40;75.10
23633;DHT22;11993;48.748;9.166;2023-04-25T06:41:26;8.60;75.80
23633;DHT22;11993;48.748;9.166;2023-04-25T06:43:51;8.50;75.70
23633;DHT22;11993;48.748;9.166;2023-04-25T06:46:17;8.60;75.70
23633;DHT22;11993;48.748;9.166;2023-04-25T06:48:42;8.60;74.70
23633;DHT22;11993;48.748;9.166;2023-04-25T06:51:08;8.70;74.70
23633;DHT22;11993;48.748;9.166;2023-04-25T06:53:33;8.60;75.10
23633;DHT22;11993;48.748;9.166;2023-04-25T06:55:59;8.70;74.90
23633;DHT22;11993;48.748;9.166;2023-04-25T06:58:24;8.40;77.00
23633;DHT22;11993;48.748;9.166;2023-04-25T07:00:51;8.50;76.80
23633;DHT22;11993;48.748;9.166;2023-04-25T07:03:17;8.40;78.10
23633;DHT22;11993;48.748;9.166;2023-04-25T07:05:42;8.30;79.20
23633;DHT22;11993;48.748;9.166;2023-04-25T07:08:08;8.30;78.90
23633;DHT22;11993;48.748;9.166;2023-04-25T07:10:33;8.30;79.70
23633;DHT22;11993;48.748;9.166;2023-04-25T07:12:59;8.30;79.70
23633;DHT22;11993;48.748;9.166;2023-04-25T07:15:24;8.40;80.00
23633;DHT22;11993;48.748;9.166;2023-04-25T07:17:53;8.50;79.40
23633;DHT22;11993;48.748;9.166;2023-04-25T07:20:19;8.40;80.00
23633;DHT22;11993;48.748;9.166;2023-04-25T07:22:44;8.40;80.30
23633;DHT22;11993;48.748;9.166;2023-04-25T07:25:10;8.40;79.90
23633;DHT22;11993;48.748;9.166;2023-04-25T07:27:35;8.50;79.70
23633;DHT22;11993;48.748;9.166;2023-04-25T07:30:01;8.40;79.80
23633;DHT22;11993;48.748;9.166;2023-04-25T07:32:28;8.30;80.00
23633;DHT22;11993;48.748;9.166;2023-04-25T07:34:54;8.20;80.50
23633;DHT22;11993;48.748;9.166;2023-04-25T07:37:19;8.10;81.50
23633;DHT22;11993;48.748;9.166;2023-04-25T07:39:45;8.10;82.10
23633;DHT22;11993;48.748;9.166;2023-04-25T07:42:12;8.20;81.40
23633;DHT22;11993;48.748;9.166;2023-04-25T07:44:38;8.20;81.40
23633;DHT22;11993;48.748;9.166;2023-04-25T07:47:07;8.10;81.60
23633;DHT22;11993;48.748;9.166;2023-04-25T07:49:37;8.20;80.60
23633;DHT22;11993;48.748;9.166;2023-04-25T07:52:04;8.20;81.10
23633;DHT22;11993;48.748;9.166;2023-04-25T07:54:31;8.20;80.60
23633;DHT22;11993;48.748;9.166;2023-04-25T07:56:57;8.30;80.20
23633;DHT22;11993;48.748;9.166;2023-04-25T07:59:22;8.20;81.20
23633;DHT22;11993;48.748;9.166;2023-04-25T08:01:48;8.10;80.80
23633;DHT22;11993;48.748;9.166;2023-04-25T08:04:13;8.00;82.10
23633;DHT22;11993;48.748;9.166;2023-04-25T08:06:39;8.20;81.70
23633;DHT22;11993;48.748;9.166;2023-04-25T08:09:05;8.10;81.70
23633;DHT22;11993;48.748;9.166;2023-04-25T08:11:31;8.10;81.70
23633;DHT22;11993;48.748;9.166;2023-04-25T08:13:57;8.20;81.40
23633;DHT22;11993;48.748;9.166;2023-04-25T08:16:22;8.30;81.10
23633;DHT22;11993;48.748;9.166;2023-04-25T08:18:57;8.10;81.70
23633;DHT22;11993;48.748;9.166;2023-04-25T08:21:22;8.00;82.20
23633;DHT22;11993;48.748;9.166;2023-04-25T08:23:48;8.10;81.90
23633;DHT22;11993;48.748;9.166;2023-04-25T08:26:13;7.90;82.70
23633;DHT22;11993;48.748;9.166;2023-04-25T08:28:39;7.90;83.10
23633;DHT22;11993;48.748;9.166;2023-04-25T08:31:04;7.90;82.90
23633;DHT22;11993;48.748;9.166;2023-04-25T08:33:30;7.90;83.40
23633;DHT22;11993;48.748;9.166;2023-04-25T08:35:57;7.80;83.20
23633;DHT22;11993;48.748;9.166;2023-04-25T08:38:23;7.60;83.30
23633;DHT22;11993;48.748;9.166;2023-04-25T08:40:50;7.70;82.40
23633;DHT22;11993;48.748;9.166;2023-04-25T08:43:18;7.70;83.20
23633;DHT22;11993;48.748;9.166;2023-04-25T08:45:44;7.70;83.70
23633;DHT22;11993;48.748;9.166;2023-04-25T08:48:13;7.60;84.30
23633;DHT22;11993;48.748;9.166;2023-04-25T08:50:40;7.70;83.30
23633;DHT22;11993;48.748;9.166;2023-04-25T08:53:12;7.80;82.60
23633;DHT22;11993;48.748;9.166;2023-04-25T08:55:42;7.70;82.10
23633;DHT22;11993;48.748;9.166;2023-04-25T08:58:07;7.80;82.40
23633;DHT22;11993;48.748;9.166;2023-04-25T09:00:35;7.70;82.60
23633;DHT22;11993;48.748;9.166;2023-04-25T09:03:01;7.80;82.00
23633;DHT22;11993;48.748;9.166;2023-04-25T09:05:28;7.60;82.30
23633;DHT22;11993;48.748;9.166;2023-04-25T09:07:54;7.70;82.70
23633;DHT22;11993;48.748;9.166;2023-04-25T09:10:19;7.80;83.20
23633;DHT22;11993;48.748;9.166;2023-04-25T09:13:05;7.80;83.50
23633;DHT22;11993;48.748;9.166;2023-04-25T09:15:31;7.80;83.10
23633;DHT22;11993;48.748;9.166;2023-04-25T09:17:57;7.80;83.40
23633;DHT22;11993;48.748;9.166;2023-04-25T09:20:23;8.00;83.60
23633;DHT22;11993;48.748;9.166;2023-04-25T09:23:04;8.10;82.80
23633;DHT22;11993;48.748;9.166;2023-04-25T09:25:37;7.90;82.80
23633;DHT22;11993;48.748;9.166;2023-04-25T09:28:06;7.80;83.20
23633;DHT22;11993;48.748;9.166;2023-04-25T09:30:34;7.70;83.70
23633;DHT22;11993;48.748;9.166;2023-04-25T09:33:07;7.50;84.50
23633;DHT22;11993;48.748;9.166;2023-04-25T09:35:40;7.60;84.30
23633;DHT22;11993;48.748;9.166;2023-04-25T09:38:12;7.60;84.20
23633;DHT22;11993;48.748;9.166;2023-04-25T09:40:40;7.60;83.90
23633;DHT22;11993;48.748;9.166;2023-04-25T09:43:32;7.40;83.20
23633;DHT22;11993;48.748;9.166;2023-04-25T09:45:57;7.50;83.30
23633;DHT22;11993;48.748;9.166;2023-04-25T09:48:26;7.40;84.00
23633;DHT22;11993;48.748;9.166;2023-04-25T09:53:32;7.40;83.30
23633;DHT22;11993;48.748;9.166;2023-04-25T09:56:00;7.30;82.20
23633;DHT22;11993;48.748;9.166;2023-04-25T09:58:27;7.20;82.30
23633;DHT22;11993;48.748;9.166;2023-04-25T10:00:59;7.30;83.30
23633;DHT22;11993;48.748;9.166;2023-04-25T10:03:25;7.10;83.40
23633;DHT22;11993;48.748;9.166;2023-04-25T10:05:52;7.20;83.40
23633;DHT22;11993;48.748;9.166;2023-04-25T10:08:19;7.30;84.10
23633;DHT22;11993;48.748;9.166;2023-04-25T10:10:46;7.10;83.40
23633;DHT22;11993;48.748;9.166;2023-04-25T10:13:13;7.10;83.00
23633;DHT22;11993;48.748;9.166;2023-04-25T10:15:40;7.10;82.10
23633;DHT22;11993;48.748;9.166;2023-04-25T10:18:06;7.30;81.60
23633;DHT22;11993;48.748;9.166;2023-04-25T10:20:32;7.40;82.00
23633;DHT22;11993;48.748;9.166;2023-04-25T10:23:11;7.30;81.70
23633;DHT22;11993;48.748;9.166;2023-04-25T10:25:39;7.10;82.10
23633;DHT22;11993;48.748;9.166;2023-04-25T10:28:05;7.30;81.60
23633;DHT22;11993;48.748;9.166;2023-04-25T10:30:31;7.30;82.60
23633;DHT22;11993;48.748;9.166;2023-04-25T10:32:59;7.40;82.10
23633;DHT22;11993;48.748;9.166;2023-04-25T10:35:27;7.30;81.60
23633;DHT22;11993;48.748;9.166;2023-04-25T10:38:09;7.10;81.10
23633;DHT22;11993;48.748;9.166;2023-04-25T10:40:36;7.20;80.60
23633;DHT22;11993;48.748;9.166;2023-04-25T10:43:34;7.20;81.40
23633;DHT22;11993;48.748;9.166;2023-04-25T10:46:00;7.30;82.30
23633;DHT22;11993;48.748;9.166;2023-04-25T10:48:26;7.50;82.60
23633;DHT22;11993;48.748;9.166;2023-04-25T10:51:11;7.40;82.50
23633;DHT22;11993;48.748;9.166;2023-04-25T10:53:40;7.60;82.40
23633;DHT22;11993;48.748;9.166;2023-04-25T10:56:19;7.70;82.60
23633;DHT22;11993;48.748;9.166;2023-04-25T10:58:46;7.70;81.90
23633;DHT22;11993;48.748;9.166;2023-04-25T11:01:21;7.70;82.50
23633;DHT22;11993;48.748;9.166;2023-04-25T11:03:47;7.70;82.80
23633;DHT22;11993;48.748;9.166;2023-04-25T11:06:23;7.50;83.20
23633;DHT22;11993;48.748;9.166;2023-04-25T11:08:52;7.40;84.20
23633;DHT22;11993;48.748;9.166;2023-04-25T11:11:18;7.20;85.30
23633;DHT22;11993;48.748;9.166;2023-04-25T11:13:47;7.30;84.60
23633;DHT22;11993;48.748;9.166;2023-04-25T11:16:13;7.40;84.30
23633;DHT22;11993;48.748;9.166;2023-04-25T11:18:41;7.30;83.70
23633;DHT22;11993;48.748;9.166;2023-04-25T11:21:07;7.10;84.30
23633;DHT22;11993;48.748;9.166;2023-04-25T11:23:33;7.20;84.40
23633;DHT22;11993;48.748;9.166;2023-04-25T11:25:59;7.50;83.50
23633;DHT22;11993;48.748;9.166;2023-04-25T11:28:27;7.10;82.60
23633;DHT22;11993;48.748;9.166;2023-04-25T11:30:52;7.10;84.20
23633;DHT22;11993;48.748;9.166;2023-04-25T11:33:23;7.40;83.60
23633;DHT22;11993;48.748;9.166;2023-04-25T11:35:55;7.30;83.50
23633;DHT22;11993;48.748;9.166;2023-04-25T11:38:22;7.40;84.20
23633;DHT22;11993;48.748;9.166;2023-04-25T11:40:59;7.60;82.00
23633;DHT22;11993;48.748;9.166;2023-04-25T11:43:25;7.70;81.40
23633;DHT22;11993;48.748;9.166;2023-04-25T11:45:51;7.90;82.80
23633;DHT22;11993;48.748;9.166;2023-04-25T11:48:18;8.20;82.10
23633;DHT22;11993;48.748;9.166;2023-04-25T11:50:44;8.20;81.60
23633;DHT22;11993;48.748;9.166;2023-04-25T11:53:10;8.20;81.40
23633;DHT22;11993;48.748;9.166;2023-04-25T11:55:36;8.50;79.40
23633;DHT22;11993;48.748;9.166;2023-04-25T11:58:04;8.50;79.20
23633;DHT22;11993;48.748;9.166;2023-04-25T12:00:30;8.40;79.80
23633;DHT22;11993;48.748;9.166;2023-04-25T12:02:56;8.40;79.70
23633;DHT22;11993;48.748;9.166;2023-04-25T12:05:28;8.50;79.40
23633;DHT22;11993;48.748;9.166;2023-04-25T12:07:54;8.20;81.40
23633;DHT22;11993;48.748;9.166;2023-04-25T12:10:20;8.20;80.40
23633;DHT22;11993;48.748;9.166;2023-04-25T12:12:47;8.30;80.40
23633;DHT22;11993;48.748;9.166;2023-04-25T12:15:18;8.10;81.00
23633;DHT22;11993;48.748;9.166;2023-04-25T12:17:47;8.20;80.70
23633;DHT22;11993;48.748;9.166;2023-04-25T12:20:15;8.20;80.60
23633;DHT22;11993;48.748;9.166;2023-04-25T12:22:44;8.30;79.90
23633;DHT22;11993;48.748;9.166;2023-04-25T12:25:33;8.40;79.40
23633;DHT22;11993;48.748;9.166;2023-04-25T12:28:28;8.20;80.00
23633;DHT22;11993;48.748;9.166;2023-04-25T12:31:01;8.20;81.60
23633;DHT22;11993;48.748;9.166;2023-04-25T12:33:35;8.30;81.20
23633;DHT22;11993;48.748;9.166;2023-04-25T12:36:01;8.40;79.90
23633;DHT22;11993;48.748;9.166;2023-04-25T12:38:42;8.70;79.10
23633;DHT22;11993;48.748;9.166;2023-04-25T12:41:12;8.70;78.20
23633;DHT22;11993;48.748;9.166;2023-04-25T12:43:37;8.60;78.80
23633;DHT22;11993;48.748;9.166;2023-04-25T12:46:03;8.80;78.60
23633;DHT22;11993;48.748;9.166;2023-04-25T12:48:28;8.90;77.90
23633;DHT22;11993;48.748;9.166;2023-04-25T12:50:54;8.90;78.90
23633;DHT22;11993;48.748;9.166;2023-04-25T12:53:22;9.10;78.20
23633;DHT22;11993;48.748;9.166;2023-04-25T12:55:48;9.10;77.80
23633;DHT22;11993;48.748;9.166;2023-04-25T12:58:18;8.90;77.70
23633;DHT22;11993;48.748;9.166;2023-04-25T13:00:44;9.30;76.70
23633;DHT22;11993;48.748;9.166;2023-04-25T13:03:10;9.60;77.00
23633;DHT22;11993;48.748;9.166;2023-04-25T13:05:39;9.70;75.70
23633;DHT22;11993;48.748;9.166;2023-04-25T13:08:05;9.80;75.10
23633;DHT22;11993;48.748;9.166;2023-04-25T13:10:31;9.80;75.40
23633;DHT22;11993;48.748;9.166;2023-04-25T13:12:56;9.40;74.10
23633;DHT22;11993;48.748;9.166;2023-04-25T13:15:22;9.80;76.20
23633;DHT22;11993;48.748;9.166;2023-04-25T13:17:48;9.90;76.40
23633;DHT22;11993;48.748;9.166;2023-04-25T13:20:13;10.10;76.60
23633;DHT22;11993;48.748;9.166;2023-04-25T13:22:41;10.30;76.10
23633;DHT22;11993;48.748;9.166;2023-04-25T13:25:07;10.10;75.10
23633;DHT22;11993;48.748;9.166;2023-04-25T13:27:36;10.20;74.10
23633;DHT22;11993;48.748;9.166;2023-04-25T13:30:05;10.40;72.20
23633;DHT22;11993;48.748;9.166;2023-04-25T13:32:34;10.70;72.30
23633;DHT22;11993;48.748;9.166;2023-04-25T13:35:04;10.60;72.50
23633;DHT22;11993;48.748;9.166;2023-04-25T13:37:30;10.70;70.70
23633;DHT22;11993;48.748;9.166;2023-04-25T13:39:59;10.60;72.40
23633;DHT22;11993;48.748;9.166;2023-04-25T13:42:25;10.50;73.50
23633;DHT22;11993;48.748;9.166;2023-04-25T13:44:51;10.20;72.50
23633;DHT22;11993;48.748;9.166;2023-04-25T13:47:17;10.30;73.20
23633;DHT22;11993;48.748;9.166;2023-04-25T13:49:42;10.60;74.10
23633;DHT22;11993;48.748;9.166;2023-04-25T13:52:08;10.60;71.90
23633;DHT22;11993;48.748;9.166;2023-04-25T13:54:33;10.60;72.30
23633;DHT22;11993;48.748;9.166;2023-04-25T13:56:59;10.40;72.80
23633;DHT22;11993;48.748;9.166;2023-04-25T13:59:27;10.20;73.50
23633;DHT22;11993;48.748;9.166;2023-04-25T14:01:53;10.20;75.00
23633;DHT22;11993;48.748;9.166;2023-04-25T14:04:18;10.50;74.10
23633;DHT22;11993;48.748;9.166;2023-04-25T14:06:44;10.40;74.10
23633;DHT22;11993;48.748;9.166;2023-04-25T14:09:10;10.70;73.20
23633;DHT22;11993;48.748;9.166;2023-04-25T14:11:38;11.30;72.40
23633;DHT22;11993;48.748;9.166;2023-04-25T14:14:04;11.60;69.20
23633;DHT22;11993;48.748;9.166;2023-04-25T14:16:30;11.60;68.80
23633;DHT22;11993;48.748;9.166;2023-04-25T14:18:58;11.60;71.10
23633;DHT22;11993;48.748;9.166;2023-04-25T14:21:24;11.10;70.50
23633;DHT22;11993;48.748;9.166;2023-04-25T14:23:49;11.20;71.10
23633;DHT22;11993;48.748;9.166;2023-04-25T14:26:15;11.10;69.60
23633;DHT22;11993;48.748;9.166;2023-04-25T14:28:41;10.30;70.30
23633;DHT22;11993;48.748;9.166;2023-04-25T14:31:07;10.60;73.00
23633;DHT22;11993;48.748;9.166;2023-04-25T14:33:32;10.70;72.10
23633;DHT22;11993;48.748;9.166;2023-04-25T14:35:58;10.60;72.50
23633;DHT22;11993;48.748;9.166;2023-04-25T14:38:24;10.70;72.50
23633;DHT22;11993;48.748;9.166;2023-04-25T14:40:51;11.40;73.80
23633;DHT22;11993;48.748;9.166;2023-04-25T14:43:17;11.40;71.80
23633;DHT22;11993;48.748;9.166;2023-04-25T14:45:42;11.40;68.90
23633;DHT22;11993;48.748;9.166;2023-04-25T14:48:10;11.40;66.40
23633;DHT22;11993;48.748;9.166;2023-04-25T14:50:36;11.20;67.80
23633;DHT22;11993;48.748;9.166;2023-04-25T14:53:02;10.70;68.00
23633;DHT22;11993;48.748;9.166;2023-04-25T14:55:27;10.40;69.00
23633;DHT22;11993;48.748;9.166;2023-04-25T14:57:56;10.90;66.90
23633;DHT22;11993;48.748;9.166;2023-04-25T15:00:22;10.90;65.90
23633;DHT22;11993;48.748;9.166;2023-04-25T15:02:48;11.20;66.80
23633;DHT22;11993;48.748;9.166;2023-04-25T15:05:14;11.10;68.10
23633;DHT22;11993;48.748;9.166;2023-04-25T15:07:40;11.30;68.50
23633;DHT22;11993;48.748;9.166;2023-04-25T15:10:07;11.40;68.00
23633;DHT22;11993;48.748;9.166;2023-04-25T15:12:39;11.70;67.20
23633;DHT22;11993;48.748;9.166;2023-04-25T15:15:05;11.80;67.40
23633;DHT22;11993;48.748;9.166;2023-04-25T15:17:31;12.10;66.60
23633;DHT22;11993;48.748;9.166;2023-04-25T15:19:57;12.60;63.50
23633;DHT22;11993;48.748;9.166;2023-04-25T15:22:22;12.20;67.00
23633;DHT22;11993;48.748;9.166;2023-04-25T15:24:48;12.40;62.10
23633;DHT22;11993;48.748;9.166;2023-04-25T15:27:14;11.70;65.40
23633;DHT22;11993;48.748;9.166;2023-04-25T15:29:39;12.00;64.60
23633;DHT22;11993;48.748;9.166;2023-04-25T15:32:05;11.50;65.50
23633;DHT22;11993;48.748;9.166;2023-04-25T15:34:31;11.70;66.50
23633;DHT22;11993;48.748;9.166;2023-04-25T15:36:56;11.70;66.10
23633;DHT22;11993;48.748;9.166;2023-04-25T15:39:23;11.60;68.30
23633;DHT22;11993;48.748;9.166;2023-04-25T15:41:48;11.50;67.50
23633;DHT22;11993;48.748;9.166;2023-04-25T15:44:14;11.30;69.30